createdAt,value
2023-04-30T00:02:09.604Z,77.60
2023-04-30T00:04:37.054Z,77.40
2023-04-30T00:07:04.024Z,77.20
2023-04-30T00:09:30.798Z,77.50
2023-04-30T00:11:57.674Z,77.60
2023-04-30T00:14:24.453Z,77.30
2023-04-30T00:16:51.347Z,77.60
2023-04-30T00:19:18.316Z,77.30
2023-04-30T00:21:45.093Z,77.10
2023-04-30T00:24:11.977Z,77.30
2023-04-30T00:26:38.692Z,77.00
2023-04-30T00:29:05.602Z,77.10
2023-04-30T00:31:32.432Z,77.00
2023-04-30T00:33:59.185Z,77.20
2023-04-30T00:36:25.958Z,77.10
2023-04-30T00:38:52.821Z,77.10
2023-04-30T00:41:21.164Z,77.10
2023-04-30T00:43:48.079Z,77.20
2023-04-30T00:46:15.112Z,77.50
2023-04-30T00:48:41.944Z,77.60
2023-04-30T00:51:08.768Z,77.70
2023-04-30T00:53:36.249Z,77.40
2023-04-30T00:56:03.716Z,77.60
2023-04-30T00:58:31.277Z,77.90
2023-04-30T01:00:58.771Z,78.00
2023-04-30T01:03:25.712Z,78.40
2023-04-30T01:05:53.802Z,78.50
2023-04-30T01:08:21.737Z,78.90
2023-04-30T01:11:19.642Z,79.20
2023-04-30T01:14:09.888Z,78.90
2023-04-30T01:16:45.413Z,78.80
2023-04-30T01:19:29.933Z,79.10
2023-04-30T01:22:04.901Z,78.90
2023-04-30T01:24:46.515Z,78.80
2023-04-30T01:27:16.016Z,79.20
2023-04-30T01:29:43.529Z,79.40
2023-04-30T01:32:13.287Z,79.40
2023-04-30T01:34:40.095Z,79.50
2023-04-30T01:37:15.996Z,79.70
2023-04-30T01:39:56.741Z,79.80
2023-04-30T01:42:40.107Z,79.50
2023-04-30T01:45:09.826Z,79.40
2023-04-30T01:48:03.727Z,80.10
2023-04-30T01:50:39.835Z,79.90
2023-04-30T01:53:10.821Z,80.00
2023-04-30T01:55:48.808Z,80.50
2023-04-30T01:58:16.695Z,80.40
2023-04-30T02:00:43.425Z,80.80
2023-04-30T02:03:10.476Z,80.70
2023-04-30T02:05:37.459Z,80.90
2023-04-30T02:08:04.459Z,80.80
2023-04-30T02:10:31.193Z,80.90
2023-04-30T02:12:58.118Z,81.30
2023-04-30T02:15:25.143Z,81.20
2023-04-30T02:17:52.047Z,81.50
2023-04-30T02:20:18.913Z,81.20
2023-04-30T02:22:45.824Z,81.10
2023-04-30T02:25:12.867Z,82.40
2023-04-30T02:27:40.019Z,81.30
2023-04-30T02:30:07.693Z,82.60
2023-04-30T02:32:34.849Z,82.60
2023-04-30T02:35:01.787Z,82.60
2023-04-30T02:37:28.658Z,81.40
2023-04-30T02:39:55.577Z,82.70
2023-04-30T02:42:22.652Z,82.70
2023-04-30T02:44:49.441Z,82.80
2023-04-30T02:47:16.206Z,81.50
2023-04-30T02:49:43.049Z,81.40
2023-04-30T02:52:10.105Z,82.50
2023-04-30T02:54:36.930Z,81.20
2023-04-30T02:57:03.858Z,82.50
2023-04-30T02:59:30.851Z,82.30
2023-04-30T03:01:57.652Z,81.10
2023-04-30T03:04:24.447Z,82.50
2023-04-30T03:06:51.329Z,81.10
2023-04-30T03:09:18.260Z,81.30
2023-04-30T03:11:45.029Z,81.30
2023-04-30T03:14:11.815Z,81.10
2023-04-30T03:16:38.682Z,81.30
2023-04-30T03:19:05.469Z,81.20
2023-04-30T03:21:32.750Z,81.50
2023-04-30T03:23:59.592Z,81.20
2023-04-30T03:26:26.476Z,81.20
2023-04-30T03:28:55.210Z,81.20
2023-04-30T03:31:22.121Z,81.10
2023-04-30T03:33:48.970Z,81.40
2023-04-30T03:36:15.966Z,81.30
2023-04-30T03:38:43.028Z,81.40
2023-04-30T03:41:09.896Z,81.30
2023-04-30T03:43:38.092Z,81.30
2023-04-30T03:46:05.099Z,82.60
2023-04-30T03:48:32.283Z,82.80
2023-04-30T03:50:59.107Z,82.70
2023-04-30T03:53:26.711Z,83.20
2023-04-30T03:55:54.872Z,83.10
2023-04-30T03:58:22.409Z,83.10
2023-04-30T04:00:49.787Z,83.20
2023-04-30T04:03:16.900Z,83.10
2023-04-30T04:05:44.405Z,83.40
2023-04-30T04:08:11.291Z,83.20
2023-04-30T04:10:39.602Z,83.40
2023-04-30T04:13:06.997Z,83.20
2023-04-30T04:15:34.270Z,83.10
2023-04-30T04:18:01.038Z,83.50
2023-04-30T04:20:29.930Z,83.20
2023-04-30T04:22:57.245Z,83.40
2023-04-30T04:25:25.270Z,83.50
2023-04-30T04:27:52.637Z,83.60
2023-04-30T04:30:19.721Z,83.50
2023-04-30T04:32:47.042Z,83.50
2023-04-30T04:35:17.358Z,83.70
2023-04-30T04:37:44.252Z,83.50
2023-04-30T04:40:12.444Z,83.70
2023-04-30T04:42:39.449Z,83.70
2023-04-30T04:45:08.005Z,83.70
2023-04-30T04:47:35.069Z,83.50
2023-04-30T04:50:02.194Z,83.50
2023-04-30T04:52:29.160Z,83.20
2023-04-30T04:54:56.275Z,83.20
2023-04-30T04:57:23.090Z,83.00
2023-04-30T04:59:49.938Z,81.60
2023-04-30T05:02:16.783Z,81.60
2023-04-30T05:04:43.598Z,81.10
2023-04-30T05:07:10.710Z,81.00
2023-04-30T05:09:37.633Z,80.60
2023-04-30T05:12:04.868Z,80.00
2023-04-30T05:14:31.713Z,79.50
2023-04-30T05:16:58.574Z,79.20
2023-04-30T05:19:25.440Z,79.00
2023-04-30T05:21:52.213Z,78.60
2023-04-30T05:24:19.001Z,78.60
2023-04-30T05:26:45.790Z,78.50
2023-04-30T05:29:13.091Z,78.10
2023-04-30T05:31:40.019Z,77.80
2023-04-30T05:34:06.906Z,77.70
2023-04-30T05:36:33.755Z,77.40
2023-04-30T05:39:00.542Z,77.10
2023-04-30T05:41:27.424Z,77.00
2023-04-30T05:43:54.223Z,76.80
2023-04-30T05:46:21.221Z,76.20
2023-04-30T05:48:48.439Z,76.10
2023-04-30T05:51:15.198Z,76.30
2023-04-30T05:53:41.960Z,76.10
2023-04-30T05:56:09.047Z,76.00
2023-04-30T05:58:35.812Z,75.90
2023-04-30T06:01:02.713Z,75.40
2023-04-30T06:03:29.623Z,75.20
2023-04-30T06:05:56.508Z,75.10
2023-04-30T06:08:23.362Z,74.50
2023-04-30T06:10:51.201Z,74.20
2023-04-30T06:13:18.349Z,73.40
2023-04-30T06:15:46.124Z,73.70
2023-04-30T06:18:14.330Z,73.30
2023-04-30T06:20:41.262Z,72.90
2023-04-30T06:23:08.925Z,72.30
2023-04-30T06:25:36.081Z,71.90
2023-04-30T06:28:02.977Z,72.00
2023-04-30T06:30:31.506Z,71.60
2023-04-30T06:32:58.355Z,70.90
2023-04-30T06:35:25.209Z,70.60
2023-04-30T06:37:51.957Z,71.40
2023-04-30T06:40:18.943Z,70.90
2023-04-30T06:42:53.211Z,69.70
2023-04-30T06:45:20.223Z,69.70
2023-04-30T06:47:47.303Z,68.70
2023-04-30T06:50:15.766Z,68.30
2023-04-30T06:52:42.930Z,67.20
2023-04-30T06:55:10.052Z,66.80
2023-04-30T06:57:37.536Z,66.70
2023-04-30T07:00:08.794Z,66.60
2023-04-30T07:02:36.316Z,64.90
2023-04-30T07:05:03.570Z,64.70
2023-04-30T07:07:30.418Z,64.40
2023-04-30T07:09:57.529Z,63.00
2023-04-30T07:12:25.161Z,63.00
2023-04-30T07:14:52.032Z,60.70
2023-04-30T07:17:18.925Z,58.20
2023-04-30T07:19:45.956Z,55.90
2023-04-30T07:22:12.754Z,54.60
2023-04-30T07:24:39.550Z,54.20
2023-04-30T07:27:07.484Z,54.10
2023-04-30T07:29:35.936Z,53.50
2023-04-30T07:32:03.277Z,53.50
2023-04-30T07:34:30.371Z,52.90
2023-04-30T07:36:57.199Z,51.90
2023-04-30T07:39:26.014Z,52.30
2023-04-30T07:41:52.847Z,51.60
2023-04-30T07:44:19.685Z,51.60
2023-04-30T07:46:46.636Z,50.70
2023-04-30T07:49:13.523Z,50.70
2023-04-30T07:51:42.390Z,50.30
2023-04-30T07:54:09.178Z,48.00
2023-04-30T07:56:36.342Z,49.10
2023-04-30T07:59:03.183Z,47.50
2023-04-30T08:01:30.058Z,47.60
2023-04-30T08:03:56.930Z,47.60
2023-04-30T08:06:24.302Z,46.90
2023-04-30T08:08:51.199Z,47.00
2023-04-30T08:11:18.055Z,47.50
2023-04-30T08:13:44.910Z,47.90
2023-04-30T08:16:11.704Z,47.70
2023-04-30T08:18:44.906Z,48.20
2023-04-30T08:21:16.385Z,49.20
2023-04-30T08:23:43.232Z,48.40
2023-04-30T08:26:10.152Z,49.20
2023-04-30T08:28:37.183Z,49.80
2023-04-30T08:31:04.145Z,49.40
2023-04-30T08:33:32.134Z,48.70
2023-04-30T08:35:59.918Z,49.10
2023-04-30T08:38:28.269Z,49.80
2023-04-30T08:41:18.604Z,49.40
2023-04-30T08:43:45.465Z,49.40
2023-04-30T08:46:17.520Z,47.70
2023-04-30T08:48:45.082Z,47.20
2023-04-30T08:51:12.180Z,47.60
2023-04-30T08:53:39.486Z,48.00
2023-04-30T08:56:06.820Z,48.10
2023-04-30T08:58:33.776Z,48.50
2023-04-30T09:01:01.866Z,47.40
2023-04-30T09:03:29.019Z,48.10
2023-04-30T09:05:57.182Z,48.30
2023-04-30T09:08:43.688Z,48.00
2023-04-30T09:11:32.426Z,48.00
2023-04-30T09:14:01.942Z,47.90
2023-04-30T09:16:49.901Z,47.70
2023-04-30T09:19:30.836Z,47.60
2023-04-30T09:21:59.780Z,48.40
2023-04-30T09:24:26.590Z,47.70
2023-04-30T09:26:54.062Z,46.80
2023-04-30T09:29:20.898Z,46.80
2023-04-30T09:31:47.977Z,47.10
2023-04-30T09:34:15.384Z,46.80
2023-04-30T09:36:55.969Z,46.90
2023-04-30T09:39:23.118Z,47.20
2023-04-30T09:41:52.142Z,46.40
2023-04-30T09:44:29.973Z,45.20
2023-04-30T09:47:00.340Z,45.00
2023-04-30T09:49:27.643Z,46.50
2023-04-30T09:51:59.338Z,45.20
2023-04-30T09:54:28.543Z,45.20
2023-04-30T09:56:58.061Z,45.10
2023-04-30T09:59:31.017Z,44.20
2023-04-30T10:02:03.257Z,44.40
2023-04-30T10:04:42.252Z,45.00
2023-04-30T10:07:20.869Z,45.10
2023-04-30T10:09:51.670Z,44.60
2023-04-30T10:12:35.336Z,44.40
2023-04-30T10:15:35.788Z,44.70
2023-04-30T10:18:05.859Z,44.20
2023-04-30T10:20:37.277Z,44.10
2023-04-30T10:23:04.746Z,43.50
2023-04-30T10:25:32.955Z,43.80
2023-04-30T10:28:00.845Z,43.70
2023-04-30T10:30:28.426Z,43.00
2023-04-30T10:33:17.029Z,43.30
2023-04-30T10:35:47.429Z,43.70
2023-04-30T10:38:28.365Z,43.20
2023-04-30T10:40:59.531Z,42.90
2023-04-30T10:43:27.693Z,42.70
2023-04-30T10:45:54.598Z,42.80
2023-04-30T10:48:27.216Z,43.00
2023-04-30T10:50:58.707Z,42.30
2023-04-30T10:53:27.965Z,42.70
2023-04-30T10:56:01.366Z,42.80
2023-04-30T10:58:31.963Z,43.40
2023-04-30T11:01:02.017Z,42.80
2023-04-30T11:03:30.512Z,42.70
2023-04-30T11:17:25.052Z,42.90
2023-04-30T11:19:53.790Z,41.30
2023-04-30T11:22:24.883Z,41.40
2023-04-30T11:25:15.325Z,41.80
2023-04-30T11:27:47.111Z,41.80
2023-04-30T11:30:16.499Z,42.10
2023-04-30T11:32:48.486Z,41.90
2023-04-30T11:35:19.715Z,42.20
2023-04-30T11:37:48.415Z,41.60
2023-04-30T11:40:15.791Z,42.00
2023-04-30T11:42:46.082Z,41.80
2023-04-30T11:45:17.912Z,42.00
2023-04-30T11:47:52.588Z,41.50
2023-04-30T11:50:27.442Z,42.30
2023-04-30T11:52:55.893Z,40.70
2023-04-30T11:55:25.337Z,41.10
2023-04-30T11:57:56.776Z,40.90
2023-04-30T12:00:28.949Z,41.60
2023-04-30T12:02:57.499Z,41.20
2023-04-30T12:05:26.882Z,41.10
2023-04-30T12:08:00.046Z,40.90
2023-04-30T12:10:27.425Z,41.20
2023-04-30T12:12:55.399Z,41.50
2023-04-30T12:15:27.356Z,41.70
2023-04-30T12:17:56.417Z,40.80
2023-04-30T12:20:27.323Z,40.80
2023-04-30T12:22:54.433Z,41.20
2023-04-30T12:25:25.132Z,41.50
2023-04-30T12:27:53.543Z,41.40
2023-04-30T12:30:22.154Z,40.80
2023-04-30T12:32:53.616Z,40.90
2023-04-30T12:35:23.358Z,41.20
2023-04-30T12:37:54.630Z,41.00
2023-04-30T12:40:27.633Z,41.30
2023-04-30T12:43:20.606Z,41.00
2023-04-30T12:45:52.036Z,39.60
2023-04-30T12:48:26.079Z,40.00
2023-04-30T12:51:01.233Z,40.80
2023-04-30T12:53:29.158Z,39.90
2023-04-30T12:56:16.552Z,39.20
2023-04-30T12:58:50.176Z,39.40
2023-04-30T13:01:22.054Z,39.20
2023-04-30T13:03:49.518Z,39.20
2023-04-30T13:06:17.026Z,39.20
2023-04-30T13:08:57.899Z,38.90
2023-04-30T13:11:27.557Z,38.90
2023-04-30T13:13:55.974Z,40.10
2023-04-30T13:16:25.114Z,39.90
2023-04-30T13:18:52.575Z,39.30
2023-04-30T13:21:19.671Z,39.20
2023-04-30T13:23:52.834Z,38.80
2023-04-30T13:26:21.876Z,39.20
2023-04-30T13:28:48.992Z,38.90
2023-04-30T13:31:15.939Z,39.20
2023-04-30T13:33:42.893Z,39.80
2023-04-30T13:36:09.804Z,39.80
2023-04-30T13:38:36.751Z,40.10
2023-04-30T13:41:03.806Z,40.30
2023-04-30T13:43:31.355Z,40.10
2023-04-30T13:46:01.922Z,41.00
2023-04-30T13:48:29.143Z,40.70
2023-04-30T13:50:56.077Z,40.80
2023-04-30T13:53:22.997Z,41.10
2023-04-30T13:55:49.937Z,41.10
2023-04-30T13:58:16.936Z,41.00
2023-04-30T14:00:43.858Z,41.20
2023-04-30T14:03:11.579Z,40.80
2023-04-30T14:05:39.400Z,40.90
2023-04-30T14:08:06.439Z,41.40
2023-04-30T14:10:33.432Z,41.10
2023-04-30T14:13:00.411Z,40.90
2023-04-30T14:15:30.688Z,40.90
2023-04-30T14:17:57.687Z,41.10
2023-04-30T14:20:25.538Z,40.90
2023-04-30T14:22:52.503Z,41.20
2023-04-30T14:25:19.452Z,41.20
2023-04-30T14:27:47.649Z,41.50
2023-04-30T14:30:14.803Z,41.60
2023-04-30T14:32:41.721Z,41.80
2023-04-30T14:35:09.837Z,41.50
2023-04-30T14:37:37.158Z,41.50
2023-04-30T14:40:06.699Z,41.20
2023-04-30T14:42:33.895Z,41.80
2023-04-30T14:45:00.928Z,41.40
2023-04-30T14:47:28.753Z,41.00
2023-04-30T14:49:55.911Z,40.80
2023-04-30T14:52:23.186Z,40.70
2023-04-30T14:54:50.126Z,40.50
2023-04-30T14:57:17.695Z,40.80
2023-04-30T14:59:44.662Z,41.10
2023-04-30T15:02:11.765Z,41.10
2023-04-30T15:04:38.749Z,41.30
2023-04-30T15:07:05.846Z,41.40
2023-04-30T15:09:32.671Z,41.50
2023-04-30T15:11:59.545Z,41.50
2023-04-30T15:14:26.420Z,42.00
2023-04-30T15:16:53.332Z,41.60
2023-04-30T15:19:20.179Z,42.10
2023-04-30T15:21:48.956Z,43.40
2023-04-30T15:24:16.170Z,43.60
2023-04-30T15:26:43.101Z,43.90
2023-04-30T15:29:10.640Z,43.50
2023-04-30T15:31:37.798Z,44.00
2023-04-30T15:34:04.727Z,43.80
2023-04-30T15:36:32.463Z,44.10
2023-04-30T15:38:59.559Z,44.50
2023-04-30T15:41:26.448Z,44.00
2023-04-30T15:43:53.443Z,44.10
2023-04-30T15:46:20.449Z,44.30
2023-04-30T15:48:47.333Z,44.20
2023-04-30T15:51:14.333Z,44.80
2023-04-30T15:53:41.227Z,44.20
2023-04-30T15:56:09.775Z,44.40
2023-04-30T15:58:36.826Z,44.60
2023-04-30T16:01:03.913Z,44.90
2023-04-30T16:03:31.610Z,44.60
2023-04-30T16:06:01.048Z,44.80
2023-04-30T16:08:28.545Z,44.60
2023-04-30T16:10:55.605Z,44.30
2023-04-30T16:13:22.464Z,44.60
2023-04-30T16:15:49.714Z,44.80
2023-04-30T16:18:16.969Z,45.10
2023-04-30T16:20:47.206Z,44.80
2023-04-30T16:23:14.314Z,45.00
2023-04-30T16:25:41.176Z,45.30
2023-04-30T16:28:08.050Z,45.30
2023-04-30T16:30:35.072Z,45.00
2023-04-30T16:33:01.981Z,44.70
2023-04-30T16:35:28.892Z,44.90
2023-04-30T16:37:55.864Z,45.20
2023-04-30T16:40:22.828Z,45.30
2023-04-30T16:42:50.225Z,44.80
2023-04-30T16:45:17.373Z,44.90
2023-04-30T16:47:45.167Z,45.30
2023-04-30T16:50:12.020Z,44.80
2023-04-30T16:52:38.906Z,45.10
2023-04-30T16:55:06.185Z,45.60
2023-04-30T16:57:33.222Z,45.90
2023-04-30T17:00:00.196Z,45.70
2023-04-30T17:02:27.331Z,45.80
2023-04-30T17:04:54.282Z,46.10
2023-04-30T17:07:21.180Z,46.10
2023-04-30T17:09:48.109Z,45.90
2023-04-30T17:12:15.001Z,46.00
2023-04-30T17:14:42.221Z,46.20
2023-04-30T17:17:09.228Z,45.80
2023-04-30T17:19:36.224Z,46.20
2023-04-30T17:22:03.302Z,46.30
2023-04-30T17:24:30.284Z,46.40
2023-04-30T17:26:59.387Z,46.90
2023-04-30T17:29:26.328Z,47.20
2023-04-30T17:31:54.484Z,46.60
2023-04-30T17:34:21.532Z,46.90
2023-04-30T17:36:50.140Z,46.80
2023-04-30T17:39:18.955Z,46.70
2023-04-30T17:41:46.068Z,46.80
2023-04-30T17:44:12.952Z,46.50
2023-04-30T17:46:40.394Z,46.50
2023-04-30T17:49:07.644Z,46.60
2023-04-30T17:51:34.619Z,46.60
2023-04-30T17:54:01.780Z,46.20
2023-04-30T17:56:33.204Z,46.40
2023-04-30T17:59:00.885Z,46.90
2023-04-30T18:01:27.919Z,46.80
2023-04-30T18:03:55.339Z,46.70
2023-04-30T18:06:22.559Z,46.90
2023-04-30T18:08:49.530Z,47.20
2023-04-30T18:11:16.527Z,47.10
2023-04-30T18:13:43.501Z,47.00
2023-04-30T18:16:10.832Z,47.10
2023-04-30T18:18:37.818Z,47.50
2023-04-30T18:21:04.863Z,47.50
2023-04-30T18:23:37.116Z,47.30
2023-04-30T18:26:06.708Z,47.40
2023-04-30T18:28:37.135Z,47.40
2023-04-30T18:31:04.253Z,47.50
2023-04-30T18:33:35.089Z,47.90
2023-04-30T18:36:05.569Z,48.30
2023-04-30T18:38:36.060Z,48.10
2023-04-30T18:41:07.305Z,48.10
2023-04-30T18:43:39.348Z,48.30
2023-04-30T18:46:07.367Z,48.70
2023-04-30T18:48:36.563Z,48.60
2023-04-30T18:51:25.040Z,48.30
2023-04-30T18:53:56.250Z,48.50
2023-04-30T18:56:26.775Z,48.60
2023-04-30T18:58:54.837Z,48.70
2023-04-30T19:01:33.533Z,48.80
2023-04-30T19:04:04.470Z,48.70
2023-04-30T19:06:33.732Z,49.10
2023-04-30T19:09:01.118Z,49.00
2023-04-30T19:11:28.041Z,48.80
2023-04-30T19:13:54.978Z,49.40
2023-04-30T19:16:22.058Z,49.20
2023-04-30T19:18:49.111Z,48.90
2023-04-30T19:21:16.058Z,49.30
2023-04-30T19:23:42.921Z,49.40
2023-04-30T19:26:09.975Z,49.30
2023-04-30T19:28:36.932Z,49.30
2023-04-30T19:31:04.252Z,49.10
2023-04-30T19:33:36.615Z,49.20
2023-04-30T19:36:03.713Z,49.60
2023-04-30T19:38:30.545Z,49.70
2023-04-30T19:40:57.369Z,50.30
2023-04-30T19:43:24.827Z,49.70
2023-04-30T19:45:57.161Z,49.40
2023-04-30T19:48:25.678Z,49.20
2023-04-30T19:50:58.153Z,49.70
2023-04-30T19:53:25.865Z,50.70
2023-04-30T19:55:55.872Z,50.70
2023-04-30T19:58:22.777Z,50.90
2023-04-30T20:00:49.798Z,50.90
2023-04-30T20:03:17.519Z,50.80
2023-04-30T20:05:45.053Z,50.90
2023-04-30T20:08:12.684Z,51.10
2023-04-30T20:10:41.065Z,51.20
2023-04-30T20:13:09.286Z,51.50
2023-04-30T20:15:36.544Z,51.40
2023-04-30T20:18:06.231Z,51.20
2023-04-30T20:20:33.361Z,51.50
2023-04-30T20:23:20.377Z,51.70
2023-04-30T20:25:47.901Z,51.60
2023-04-30T20:28:16.495Z,51.50
2023-04-30T20:30:43.921Z,51.40
2023-04-30T20:33:14.562Z,51.90
2023-04-30T20:35:44.113Z,51.30
2023-04-30T20:38:12.035Z,51.70
2023-04-30T20:40:42.010Z,52.00
2023-04-30T20:43:10.393Z,51.40
2023-04-30T20:45:37.819Z,51.80
2023-04-30T20:48:05.809Z,51.70
2023-04-30T20:50:32.831Z,52.10
2023-04-30T20:52:59.644Z,52.20
2023-04-30T20:55:26.890Z,52.40
2023-04-30T20:57:53.839Z,52.50
2023-04-30T21:00:21.273Z,52.40
2023-04-30T21:02:48.245Z,52.40
2023-04-30T21:05:15.257Z,52.10
2023-04-30T21:07:42.084Z,52.20
2023-04-30T21:10:09.198Z,52.00
2023-04-30T21:12:36.244Z,52.10
2023-04-30T21:15:03.572Z,51.80
2023-04-30T21:17:30.510Z,51.80
2023-04-30T21:19:57.662Z,51.60
2023-04-30T21:22:24.722Z,51.70
2023-04-30T21:24:54.726Z,52.00
2023-04-30T21:27:21.833Z,51.90
2023-04-30T21:29:48.870Z,52.00
2023-04-30T21:32:16.840Z,51.70
2023-04-30T21:34:44.205Z,51.80
2023-04-30T21:37:11.226Z,52.40
2023-04-30T21:39:38.087Z,51.90
2023-04-30T21:42:05.023Z,52.10
2023-04-30T21:44:36.178Z,52.00
2023-04-30T21:47:03.749Z,52.40
2023-04-30T21:49:31.325Z,52.70
2023-04-30T21:51:58.391Z,51.80
2023-04-30T21:54:25.397Z,51.80
2023-04-30T21:56:52.246Z,51.10
2023-04-30T21:59:19.115Z,51.00
2023-04-30T22:01:46.044Z,51.00
2023-04-30T22:04:13.120Z,50.10
2023-04-30T22:06:40.348Z,50.30
2023-04-30T22:09:07.316Z,50.50
2023-04-30T22:11:34.219Z,50.40
2023-04-30T22:14:01.286Z,50.60
2023-04-30T22:16:28.521Z,50.10
2023-04-30T22:18:58.595Z,49.90
2023-04-30T22:21:25.969Z,49.20
2023-04-30T22:23:52.858Z,49.70
2023-04-30T22:26:19.717Z,50.10
2023-04-30T22:28:46.579Z,50.00
2023-04-30T22:31:13.494Z,50.00
2023-04-30T22:33:40.394Z,50.70
2023-04-30T22:36:07.744Z,50.30
2023-04-30T22:38:35.445Z,50.10
2023-04-30T22:41:03.818Z,50.50
2023-04-30T22:43:31.219Z,50.30
2023-04-30T22:45:59.299Z,50.70
2023-04-30T22:48:28.068Z,50.80
2023-04-30T22:50:55.643Z,50.70
2023-04-30T22:53:22.816Z,50.10
2023-04-30T22:55:50.064Z,50.00
2023-04-30T22:58:17.502Z,50.10
2023-04-30T23:00:44.485Z,50.30
2023-04-30T23:03:11.476Z,50.10
2023-04-30T23:05:38.413Z,50.80
2023-04-30T23:08:05.243Z,50.10
2023-04-30T23:10:32.090Z,50.30
2023-04-30T23:12:59.113Z,49.20
2023-04-30T23:15:26.812Z,49.70
2023-04-30T23:17:54.658Z,49.10
2023-04-30T23:20:22.728Z,49.50
2023-04-30T23:22:50.181Z,48.70
2023-04-30T23:25:17.179Z,48.40
2023-04-30T23:27:45.242Z,48.70
2023-04-30T23:30:12.404Z,49.10
2023-04-30T23:32:39.722Z,48.90
2023-04-30T23:35:07.915Z,48.70
2023-04-30T23:37:35.527Z,47.80
2023-04-30T23:40:05.059Z,47.60
2023-04-30T23:42:31.859Z,47.50
2023-04-30T23:44:58.729Z,47.20
2023-04-30T23:47:27.338Z,47.50
2023-04-30T23:49:54.738Z,46.20
2023-04-30T23:52:21.714Z,46.70
2023-04-30T23:54:49.217Z,46.80
2023-04-30T23:57:16.533Z,46.50
2023-04-30T23:59:43.800Z,46.70
